Time;durP1;ratioP1;P1;durP2;ratioP2;P2;SDS_P1;SDS_P2;PMS_P1;PMS_P2;Temp;Humidity;BMP_temperature;BMP_pressure;BME280_temperature;BME280_humidity;BME280_pressure;Samples;Min_cycle;Max_cycle;Signal;HPM_P1;HPM_P2
2022/12/20 00:01:30;;;;;;;6.13;3.08;;;;;;;7.72;100.00;101227.72;5069578;28;20056;-57
2022/12/20 00:04:02;;;;;;;5.82;2.80;;;;;;;7.93;100.00;101218.03;5071902;28;20048;-57
2022/12/20 00:06:30;;;;;;;5.85;2.95;;;;;;;8.03;100.00;101207.94;5071630;28;20044;-57
2022/12/20 00:09:01;;;;;;;6.53;2.80;;;;;;;7.96;100.00;101201.28;5071123;28;20055;-57
2022/12/20 00:11:29;;;;;;;4.93;2.80;;;;;;;8.00;100.00;101194.13;5073671;28;20098;-57
2022/12/20 00:13:58;;;;;;;5.72;2.47;;;;;;;8.03;100.00;101197.47;5073961;28;20181;-58
2022/12/20 00:16:28;;;;;;;4.47;2.53;;;;;;;8.01;100.00;101204.53;5073705;28;20052;-57
2022/12/20 00:19:00;;;;;;;10.73;3.15;;;;;;;8.07;100.00;101188.53;5073612;28;20099;-57
2022/12/20 00:21:29;;;;;;;5.85;2.55;;;;;;;8.31;100.00;101193.47;5072873;28;20063;-57
2022/12/20 00:23:58;;;;;;;5.65;2.60;;;;;;;8.32;100.00;101202.16;5073518;28;20033;-57
2022/12/20 00:26:27;;;;;;;5.30;2.53;;;;;;;8.32;100.00;101207.41;5073740;28;20073;-57
2022/12/20 00:28:56;;;;;;;6.80;2.60;;;;;;;8.34;100.00;101214.28;5072259;28;20041;-58
2022/12/20 00:31:26;;;;;;;5.38;2.60;;;;;;;8.36;100.00;101206.38;5069198;28;20086;-57
2022/12/20 00:33:56;;;;;;;4.70;2.45;;;;;;;8.50;100.00;101197.84;5072409;28;20048;-58
2022/12/20 00:36:27;;;;;;;6.13;2.47;;;;;;;8.50;100.00;101197.84;5073260;28;20041;-57
2022/12/20 00:38:56;;;;;;;6.80;2.67;;;;;;;8.73;100.00;101194.03;5073385;28;20045;-57
2022/12/20 00:41:26;;;;;;;4.63;2.45;;;;;;;8.71;100.00;101198.50;5073274;28;20063;-57
2022/12/20 00:43:54;;;;;;;4.63;2.72;;;;;;;8.67;100.00;101189.09;5073372;28;20048;-57
2022/12/20 00:46:23;;;;;;;6.97;2.20;;;;;;;8.72;100.00;101197.56;5073264;28;20048;-52
2022/12/20 00:48:52;;;;;;;4.57;2.50;;;;;;;8.73;100.00;101179.13;5072831;28;20049;-47
2022/12/20 00:51:23;;;;;;;6.07;2.40;;;;;;;8.84;100.00;101186.44;5073015;28;20440;-51
2022/12/20 00:53:52;;;;;;;7.07;2.42;;;;;;;8.79;100.00;101201.56;5073068;28;20044;-50
2022/12/20 00:56:21;;;;;;;5.55;2.30;;;;;;;8.78;100.00;101190.25;5071015;28;20040;-48
2022/12/20 00:58:50;;;;;;;5.88;2.33;;;;;;;8.84;100.00;101189.06;5069196;28;20109;-52
2022/12/20 01:01:21;;;;;;;8.98;2.50;;;;;;;8.84;100.00;101199.56;5072376;28;20571;-50
2022/12/20 01:03:50;;;;;;;5.85;2.28;;;;;;;8.80;100.00;101195.41;5072360;28;20056;-50
2022/12/20 01:06:19;;;;;;;4.68;2.20;;;;;;;8.86;100.00;101187.22;5069581;28;20377;-48
2022/12/20 01:08:47;;;;;;;5.57;2.30;;;;;;;8.87;100.00;101188.91;5069527;28;20515;-53
2022/12/20 01:11:19;;;;;;;5.60;2.38;;;;;;;8.85;100.00;101189.91;5072308;28;20048;-51
2022/12/20 01:13:49;;;;;;;5.20;2.83;;;;;;;8.93;100.00;101185.09;5072552;28;20041;-53
2022/12/20 01:16:21;;;;;;;6.25;2.30;;;;;;;9.00;100.00;101177.75;5072300;28;20048;-48
2022/12/20 01:18:49;;;;;;;6.65;2.40;;;;;;;9.00;100.00;101189.13;5072512;28;20076;-47
2022/12/20 01:21:20;;;;;;;5.55;2.40;;;;;;;9.02;100.00;101186.41;5072692;28;20102;-52
2022/12/20 01:23:48;;;;;;;5.43;2.58;;;;;;;9.07;100.00;101182.59;5072445;28;20048;-51
2022/12/20 01:26:21;;;;;;;5.65;2.30;;;;;;;9.17;100.00;101188.19;5072750;28;20422;-58
2022/12/20 01:28:51;;;;;;;;;;;;;;;9.11;100.00;101194.63;5069615;28;20043;-49
2022/12/20 01:31:20;;;;;;;4.97;2.20;;;;;;;9.10;100.00;101197.34;5070327;28;19920;-58
2022/12/20 01:33:50;;;;;;;5.85;2.30;;;;;;;9.19;100.00;101196.84;5071881;28;20488;-58
2022/12/20 01:36:20;;;;;;;5.50;2.33;;;;;;;9.23;100.00;101195.75;5072677;28;20052;-58
2022/12/20 01:38:49;;;;;;;7.25;2.90;;;;;;;9.16;100.00;101210.13;5072541;28;20048;-58
2022/12/20 01:41:19;;;;;;;4.85;2.20;;;;;;;9.16;100.00;101204.03;5072412;28;20476;-58
2022/12/20 01:43:51;;;;;;;5.03;2.05;;;;;;;9.14;100.00;101196.25;5069213;28;20522;-57
2022/12/20 01:46:21;;;;;;;6.03;2.08;;;;;;;9.12;100.00;101198.94;5070046;28;20040;-56
2022/12/20 01:48:53;;;;;;;3.80;2.30;;;;;;;9.12;100.00;101195.47;5071910;28;20098;-54
2022/12/20 01:51:23;;;;;;;4.43;2.45;;;;;;;9.07;100.00;101202.75;5071196;28;20360;-53
2022/12/20 01:53:56;;;;;;;6.75;2.50;;;;;;;9.03;100.00;101198.59;5071777;28;20037;-55
2022/12/20 01:56:26;;;;;;;5.85;2.20;;;;;;;9.00;100.00;101189.13;5068633;28;20507;-53
2022/12/20 01:58:56;;;;;;;5.53;2.67;;;;;;;8.99;100.00;101190.03;5069538;28;20052;-52
2022/12/20 02:01:25;;;;;;;7.18;2.70;;;;;;;8.99;100.00;101181.31;5072097;28;20049;-56
2022/12/20 02:03:55;;;;;;;6.05;2.90;;;;;;;9.00;100.00;101185.63;5072058;28;20036;-53
2022/12/20 02:06:25;;;;;;;7.18;3.05;;;;;;;9.02;100.00;101182.00;5071821;28;20136;-53
2022/12/20 02:08:58;;;;;;;6.22;2.80;;;;;;;8.96;100.00;101191.03;5071122;28;20527;-49
2022/12/20 02:11:45;;;;;;;8.02;2.80;;;;;;;8.93;100.00;101193.84;5071712;28;20049;-52
2022/12/20 02:14:27;;;;;;;5.25;2.60;;;;;;;8.92;100.00;101183.44;5068980;28;20056;-53
2022/12/20 02:17:07;;;;;;;8.13;3.03;;;;;;;8.84;100.00;101191.69;5067134;28;20036;-51
2022/12/20 02:20:01;;;;;;;6.75;3.13;;;;;;;8.81;100.00;101189.22;5071841;28;20094;-54
2022/12/20 02:22:41;;;;;;;6.13;2.95;;;;;;;8.77;100.00;101174.59;5071389;28;20450;-52
2022/12/20 02:25:28;;;;;;;5.57;3.13;;;;;;;8.76;100.00;101172.88;5070548;28;20063;-52
2022/12/20 02:28:04;;;;;;;6.65;3.35;;;;;;;8.73;100.00;101160.78;5070061;28;20057;-53
2022/12/20 02:30:37;;;;;;;7.15;3.40;;;;;;;8.68;100.00;101156.69;5066966;28;20054;-51
2022/12/20 02:33:10;;;;;;;7.32;3.22;;;;;;;8.70;100.00;101139.97;5069179;28;20040;-52
2022/12/20 02:35:40;;;;;;;6.80;3.53;;;;;;;8.65;100.00;101130.66;5072123;28;20379;-52
2022/12/20 02:38:25;;;;;;;5.95;3.20;;;;;;;8.63;100.00;101134.19;5071884;28;20052;-51
2022/12/20 02:40:57;;;;;;;6.93;3.55;;;;;;;8.60;100.00;101139.59;5071710;28;20054;-51
2022/12/20 02:46:16;;;;;;;8.43;4.03;;;;;;;8.56;100.00;101134.59;5041352;28;20063;-50
2022/12/20 02:49:02;;;;;;;10.23;4.00;;;;;;;8.56;100.00;101138.06;5073804;28;20506;-50
2022/12/20 02:51:39;;;;;;;11.68;4.57;;;;;;;8.57;100.00;101137.13;5072170;28;20139;-54
2022/12/20 02:54:08;;;;;;;8.50;3.70;;;;;;;8.56;100.00;101137.22;5073994;28;20060;-56
2022/12/20 02:56:42;;;;;;;9.50;4.20;;;;;;;8.53;100.00;101132.97;5075269;28;20052;-54
2022/12/20 02:59:13;;;;;;;7.90;3.97;;;;;;;8.57;100.00;101129.25;5073573;28;20049;-55
2022/12/20 03:01:47;;;;;;;7.38;3.47;;;;;;;8.56;100.00;101131.97;5070399;28;20580;-56
2022/12/20 03:04:17;;;;;;;7.72;4.15;;;;;;;8.61;100.00;101129.94;5074669;28;20106;-55
2022/12/20 03:06:57;;;;;;;6.22;3.47;;;;;;;8.57;100.00;101131.03;5071861;28;20541;-55
2022/12/20 03:09:25;;;;;;;7.35;3.70;;;;;;;8.54;100.00;101125.97;5072061;28;20049;-56
2022/12/20 03:11:53;;;;;;;7.95;3.65;;;;;;;8.55;100.00;101125.88;5073078;28;20079;-55
2022/12/20 03:14:22;;;;;;;7.85;4.03;;;;;;;8.52;100.00;101126.06;5072169;28;20101;-56
2022/12/20 03:16:51;;;;;;;8.75;3.92;;;;;;;8.52;100.00;101120.81;5072585;28;20098;-56
2022/12/20 03:19:19;;;;;;;7.10;3.90;;;;;;;8.56;100.00;101122.34;5074572;28;20080;-56
2022/12/20 03:21:47;;;;;;;8.45;4.35;;;;;;;8.51;100.00;101119.09;5071240;28;20110;-56
2022/12/20 03:24:16;;;;;;;8.40;4.55;;;;;;;8.48;100.00;101123.66;5073036;28;20040;-56
2022/12/20 03:26:44;;;;;;;12.98;5.63;;;;;;;8.44;100.00;101117.72;5073955;28;20485;-56
2022/12/20 03:29:12;;;;;;;9.85;5.13;;;;;;;8.50;100.00;101109.53;5071584;28;20144;-56
2022/12/20 03:31:40;;;;;;;9.02;5.13;;;;;;;8.47;100.00;101117.56;5069215;28;20076;-56
2022/12/20 03:34:10;;;;;;;9.32;5.53;;;;;;;8.44;100.00;101112.47;5074585;28;20036;-57
2022/12/20 03:36:38;;;;;;;9.82;5.70;;;;;;;8.41;100.00;101108.22;5074679;28;20091;-56
2022/12/20 03:39:06;;;;;;;9.25;5.30;;;;;;;8.43;100.00;101113.38;5074629;28;20120;-54
2022/12/20 03:41:35;;;;;;;9.05;5.80;;;;;;;8.39;100.00;101115.31;5074609;28;20440;-56
2022/12/20 03:44:04;;;;;;;8.90;5.30;;;;;;;8.41;100.00;101113.47;5070455;28;20048;-55
2022/12/20 03:46:32;;;;;;;9.82;5.97;;;;;;;8.40;100.00;101111.78;5070224;28;20055;-56
2022/12/20 03:49:00;;;;;;;9.23;5.55;;;;;;;8.41;100.00;101115.22;5074156;28;20049;-56
2022/12/20 03:51:29;;;;;;;9.48;5.30;;;;;;;8.41;100.00;101113.47;5074396;28;20045;-56
2022/12/20 03:53:58;;;;;;;8.38;4.38;;;;;;;8.42;100.00;101094.16;5071614;28;20100;-56
2022/12/20 03:56:26;;;;;;;8.55;4.60;;;;;;;8.42;100.00;101090.72;5070255;28;20044;-51
2022/12/20 03:58:54;;;;;;;8.15;4.70;;;;;;;8.39;100.00;101083.84;5074111;28;20114;-52
2022/12/20 04:01:24;;;;;;;10.63;4.43;;;;;;;8.38;100.00;101087.41;5074067;28;20566;-52
2022/12/20 04:03:52;;;;;;;11.25;4.75;;;;;;;8.40;100.00;101079.47;5072744;28;20055;-53
2022/12/20 04:06:22;;;;;;;8.27;4.40;;;;;;;8.38;100.00;101082.16;5073823;28;20049;-53
2022/12/20 04:08:51;;;;;;;8.35;3.92;;;;;;;8.39;100.00;101086.47;5073549;28;20578;-53
2022/12/20 04:11:19;;;;;;;9.63;4.30;;;;;;;8.40;100.00;101095.22;5070804;28;20418;-53
2022/12/20 04:13:49;;;;;;;7.72;4.85;;;;;;;8.39;100.00;101099.59;5071354;28;20049;-52
2022/12/20 04:16:20;;;;;;;8.52;4.70;;;;;;;8.41;100.00;101099.50;5071003;28;20049;-57
2022/12/20 04:18:48;;;;;;;9.77;4.63;;;;;;;8.40;100.00;101090.81;5069596;28;20055;-56
2022/12/20 04:21:22;;;;;;;8.13;4.20;;;;;;;8.44;100.00;101084.47;5072448;28;20044;-56
2022/12/20 04:23:51;;;;;;;8.05;3.53;;;;;;;8.42;100.00;101077.59;5070188;28;20110;-56
2022/12/20 04:26:20;;;;;;;8.90;4.60;;;;;;;8.44;100.00;101078.38;5070369;28;20063;-56
2022/12/20 04:28:48;;;;;;;7.95;3.78;;;;;;;8.46;100.00;101066.06;5073458;28;20071;-56
2022/12/20 04:31:16;;;;;;;7.00;3.78;;;;;;;8.45;100.00;101072.22;5073587;28;20044;-54
2022/12/20 04:33:51;;;;;;;9.57;3.90;;;;;;;8.46;100.00;101071.31;5073401;28;20059;-56
2022/12/20 04:36:20;;;;;;;6.38;3.65;;;;;;;8.45;100.00;101078.34;5073446;28;20036;-56
2022/12/20 04:38:48;;;;;;;5.88;3.63;;;;;;;8.46;100.00;101082.63;5073310;28;20495;-57
2022/12/20 04:41:22;;;;;;;8.13;3.70;;;;;;;8.50;100.00;101079.88;5073373;28;20044;-56
2022/12/20 04:43:51;;;;;;;10.13;3.92;;;;;;;8.52;100.00;101088.47;5073371;28;20068;-57
2022/12/20 04:46:20;;;;;;;8.40;3.40;;;;;;;8.54;100.00;101076.16;5073173;28;20048;-57
2022/12/20 04:48:48;;;;;;;7.57;3.75;;;;;;;8.56;100.00;101067.28;5073063;28;20066;-56
2022/12/20 04:51:26;;;;;;;8.05;3.30;;;;;;;8.72;100.00;101072.53;5071633;28;20044;-55
2022/12/20 04:53:54;;;;;;;7.05;3.25;;;;;;;8.75;100.00;101059.28;5071417;28;20055;-56
2022/12/20 04:56:26;;;;;;;7.93;3.20;;;;;;;8.82;100.00;101054.56;5069742;28;20041;-55
2022/12/20 04:58:56;;;;;;;8.02;3.17;;;;;;;8.89;100.00;101061.16;5071865;28;20040;-56
2022/12/20 05:01:28;;;;;;;6.93;3.13;;;;;;;9.00;100.00;101060.56;5072911;28;20032;-56
2022/12/20 05:03:56;;;;;;;6.00;3.10;;;;;;;9.06;100.00;101059.38;5072879;28;20064;-54
2022/12/20 05:06:24;;;;;;;6.72;3.10;;;;;;;9.07;100.00;101058.44;5071477;28;20110;-56
2022/12/20 05:08:54;;;;;;;7.50;3.30;;;;;;;9.11;100.00;101055.56;5069139;28;20061;-55
2022/12/20 05:11:23;;;;;;;5.65;3.13;;;;;;;9.08;100.00;101060.13;5071872;28;20044;-54
2022/12/20 05:13:51;;;;;;;7.10;2.95;;;;;;;9.08;100.00;101060.13;5072341;28;20040;-55
2022/12/20 05:16:19;;;;;;;7.43;3.28;;;;;;;9.11;100.00;101065.22;5068113;28;20048;-54
2022/12/20 05:18:47;;;;;;;6.03;2.80;;;;;;;9.12;100.00;101070.38;5070187;28;20044;-55
2022/12/20 05:26:49;;;;;;;7.40;3.10;;;;;;;9.18;100.00;101060.47;5072424;28;20067;-51
2022/12/20 05:29:17;;;;;;;8.02;3.30;;;;;;;9.17;100.00;101064.03;5072346;28;20044;-50
2022/12/20 05:31:46;;;;;;;9.57;3.40;;;;;;;9.15;100.00;101061.50;5068401;28;20123;-55
2022/12/20 05:34:14;;;;;;;8.32;3.58;;;;;;;9.17;100.00;101062.25;5069529;28;20406;-54
2022/12/20 05:36:43;;;;;;;11.80;3.20;;;;;;;9.16;100.00;101052.66;5070214;28;20052;-48
2022/12/20 05:39:11;;;;;;;6.82;3.00;;;;;;;9.14;100.00;101050.13;5072541;28;20133;-50
2022/12/20 05:41:40;;;;;;;9.63;3.60;;;;;;;9.12;100.00;101048.53;5072382;28;20055;-49
2022/12/20 05:44:09;;;;;;;8.88;3.33;;;;;;;9.12;100.00;101045.91;5072422;28;20041;-51
2022/12/20 05:46:37;;;;;;;8.00;3.40;;;;;;;9.13;100.00;101037.97;5072348;28;20048;-50
2022/12/20 05:49:06;;;;;;;7.40;3.30;;;;;;;9.12;100.00;101043.28;5072077;28;20441;-50
2022/12/20 05:51:34;;;;;;;6.45;3.17;;;;;;;9.16;100.00;101030.84;5072077;28;20550;-49
2022/12/20 05:54:02;;;;;;;7.43;3.50;;;;;;;9.12;100.00;101036.28;5072277;28;20045;-51
2022/12/20 05:56:30;;;;;;;7.22;3.30;;;;;;;9.09;100.00;101032.97;5072162;28;20048;-49
2022/12/20 05:58:58;;;;;;;7.00;3.28;;;;;;;9.14;100.00;101025.69;5072449;28;20083;-50
2022/12/20 06:01:28;;;;;;;9.00;3.80;;;;;;;9.12;100.00;101014.41;5067826;28;20048;-53
2022/12/20 06:03:56;;;;;;;8.40;3.53;;;;;;;9.15;100.00;101003.75;5069093;28;20105;-51
2022/12/20 06:06:24;;;;;;;6.75;3.05;;;;;;;9.12;100.00;101007.41;5072276;28;20041;-52
2022/12/20 06:08:56;;;;;;;6.20;2.97;;;;;;;9.10;100.00;101011.03;5071699;28;20060;-49
2022/12/20 06:11:24;;;;;;;6.22;3.08;;;;;;;9.14;100.00;101015.19;5072111;28;20545;-50
2022/12/20 06:13:58;;;;;;;7.18;3.72;;;;;;;9.09;100.00;101019.84;5072005;28;20052;-51
2022/12/20 06:16:28;;;;;;;8.25;3.85;;;;;;;9.08;100.00;101012.91;5071983;28;20048;-55
2022/12/20 06:18:56;;;;;;;9.52;3.92;;;;;;;9.03;100.00;101023.66;5072688;28;20127;-54
2022/12/20 06:21:26;;;;;;;6.88;3.92;;;;;;;9.13;100.00;101016.13;5075966;28;20040;-53
2022/12/20 06:23:55;;;;;;;11.07;4.00;;;;;;;9.12;100.00;101009.16;5073506;28;20502;-55
2022/12/20 06:26:23;;;;;;;7.75;4.15;;;;;;;9.08;100.00;100999.78;5072493;28;20055;-55
2022/12/20 06:28:53;;;;;;;8.35;3.95;;;;;;;9.04;100.00;101003.50;5074825;28;20060;-54
2022/12/20 06:31:21;;;;;;;9.35;3.85;;;;;;;9.14;100.00;101002.06;5075662;28;20495;-48
2022/12/20 06:33:53;;;;;;;8.88;4.00;;;;;;;9.13;100.00;100990.75;5075637;28;20064;-49
2022/12/20 06:36:21;;;;;;;8.25;3.85;;;;;;;9.10;100.00;100985.63;5075354;28;20079;-50
2022/12/20 06:38:50;;;;;;;7.95;3.47;;;;;;;9.13;100.00;100989.88;5075118;28;20052;-50
2022/12/20 06:41:21;;;;;;;8.65;4.00;;;;;;;9.15;100.00;100982.78;5072266;28;20048;-52
2022/12/20 06:43:49;;;;;;;7.85;3.65;;;;;;;9.12;100.00;100982.94;5071905;28;20071;-49
2022/12/20 06:46:17;;;;;;;7.57;3.88;;;;;;;9.14;100.00;100973.19;5074861;28;20048;-51
2022/12/20 06:48:45;;;;;;;9.48;3.70;;;;;;;9.20;100.00;100979.88;5074858;28;20480;-51
2022/12/20 06:51:16;;;;;;;8.85;3.42;;;;;;;9.21;100.00;100971.91;5073011;28;20086;-48
2022/12/20 06:53:44;;;;;;;11.77;3.50;;;;;;;9.23;100.00;100975.31;5071194;28;20040;-53
2022/12/20 06:56:12;;;;;;;7.93;3.30;;;;;;;9.30;100.00;100967.94;5073877;28;20404;-52
2022/12/20 06:58:40;;;;;;;7.20;3.20;;;;;;;9.28;100.00;100970.66;5071522;28;20449;-56
2022/12/20 07:01:08;;;;;;;6.90;3.15;;;;;;;9.28;100.00;100978.53;5072867;28;20048;-56
2022/12/20 07:03:36;;;;;;;9.55;3.58;;;;;;;9.26;100.00;100980.38;5074637;28;20051;-56
2022/12/20 07:06:05;;;;;;;8.32;3.22;;;;;;;9.27;100.00;100962.84;5074517;28;20044;-49
2022/12/20 07:08:35;;;;;;;6.35;3.20;;;;;;;9.26;100.00;100969.88;5074050;28;20132;-56
2022/12/20 07:11:04;;;;;;;7.20;2.78;;;;;;;9.25;100.00;100980.47;5071469;28;20045;-56
2022/12/20 07:13:33;;;;;;;7.30;3.50;;;;;;;9.21;100.00;100977.16;5073285;28;20498;-56
2022/12/20 07:16:02;;;;;;;9.45;2.97;;;;;;;9.22;100.00;100973.63;5071675;28;20064;-56
2022/12/20 07:18:31;;;;;;;6.18;2.60;;;;;;;9.26;100.00;100976.91;5071580;28;20426;-55
2022/12/20 07:21:00;;;;;;;8.50;3.47;;;;;;;9.26;100.00;100963.78;5074336;28;20571;-48
2022/12/20 07:23:28;;;;;;;5.57;2.65;;;;;;;9.23;100.00;100979.69;5074043;28;20062;-49
2022/12/20 07:26:00;;;;;;;4.72;2.80;;;;;;;9.28;100.00;100977.66;5071546;28;20487;-56
2022/12/20 07:28:28;;;;;;;5.40;2.50;;;;;;;9.22;100.00;100978.84;5073832;28;20049;-56
2022/12/20 07:31:00;;;;;;;8.02;2.88;;;;;;;9.33;100.00;100977.41;5074863;28;20048;-48
2022/12/20 07:33:29;;;;;;;6.13;2.67;;;;;;;9.25;100.00;100983.09;5074170;28;20060;-52
2022/12/20 07:36:00;;;;;;;7.18;2.80;;;;;;;9.21;100.00;100982.41;5074728;28;20128;-51
2022/12/20 07:38:29;;;;;;;6.40;2.90;;;;;;;9.18;100.00;100972.09;5074384;28;20051;-51
2022/12/20 07:41:07;;;;;;;6.30;2.80;;;;;;;9.22;100.00;100983.28;5074469;28;20507;-53
2022/12/20 07:43:35;;;;;;;4.80;2.80;;;;;;;9.20;100.00;100980.72;5071581;28;20120;-50
2022/12/20 07:46:05;;;;;;;4.30;2.42;;;;;;;9.19;100.00;100970.31;5069388;28;20411;-50
2022/12/20 07:48:35;;;;;;;5.18;2.60;;;;;;;9.19;100.00;100978.19;5074251;28;20492;-57
2022/12/20 07:51:08;;;;;;;6.20;2.60;;;;;;;9.21;100.00;100973.69;5074022;28;20075;-56
2022/12/20 07:53:42;;;;;;;5.18;2.60;;;;;;;9.23;100.00;100963.94;5074512;28;20044;-56
2022/12/20 07:56:14;;;;;;;7.35;2.53;;;;;;;9.23;100.00;100972.69;5074239;28;20495;-57
2022/12/20 07:58:44;;;;;;;6.67;2.90;;;;;;;9.16;100.00;100973.13;5070675;28;20060;-50
2022/12/20 08:01:13;;;;;;;9.60;3.15;;;;;;;9.18;100.00;100987.84;5071578;28;20037;-49
2022/12/20 08:03:45;;;;;;;7.82;2.95;;;;;;;9.18;100.00;100992.25;5074017;28;20045;-47
2022/12/20 08:06:15;;;;;;;;;;;;;;;9.22;100.00;101005.09;5074562;28;20048;-56
2022/12/20 08:08:47;;;;;;;7.53;2.72;;;;;;;9.18;100.00;100993.09;5073769;28;19920;-50
2022/12/20 08:11:20;;;;;;;12.20;4.30;;;;;;;9.17;100.00;100994.00;5073938;28;20041;-56
2022/12/20 08:13:49;;;;;;;11.05;4.00;;;;;;;9.17;100.00;101003.69;5073612;28;20068;-49
2022/12/20 08:16:26;;;;;;;13.57;4.57;;;;;;;9.13;100.00;100996.00;5070797;28;20119;-56
2022/12/20 08:18:55;;;;;;;6.65;2.80;;;;;;;9.12;100.00;100996.03;5070585;28;20059;-56
2022/12/20 08:21:23;;;;;;;9.23;2.78;;;;;;;9.13;100.00;100993.38;5073054;28;20111;-56
2022/12/20 08:23:51;;;;;;;4.95;2.55;;;;;;;9.20;100.00;101003.50;5070195;28;20049;-56
2022/12/20 08:26:20;;;;;;;6.70;2.45;;;;;;;9.20;100.00;100983.34;5071776;28;20060;-56
2022/12/20 08:28:48;;;;;;;4.65;2.13;;;;;;;9.29;100.00;100987.22;5073426;28;20056;-54
2022/12/20 08:31:17;;;;;;;9.18;4.15;;;;;;;9.44;100.00;100996.00;5073677;28;20040;-48
2022/12/20 08:33:45;;;;;;;8.23;3.58;;;;;;;9.36;100.00;100995.59;5073186;28;20048;-51
2022/12/20 08:36:14;;;;;;;8.95;2.42;;;;;;;9.36;100.00;100998.22;5073269;28;20052;-52
2022/12/20 08:38:42;;;;;;;5.63;2.45;;;;;;;9.34;100.00;100992.19;5071923;28;20462;-48
2022/12/20 08:41:12;;;;;;;13.38;6.68;;;;;;;9.36;100.00;100982.47;5073069;28;20048;-52
2022/12/20 08:43:42;;;;;;;5.55;2.45;;;;;;;9.38;100.00;100977.97;5072763;28;20045;-49
2022/12/20 08:46:11;;;;;;;7.75;2.83;;;;;;;9.42;100.00;100985.59;5073406;28;20060;-52
2022/12/20 08:48:40;;;;;;;9.45;3.25;;;;;;;9.43;100.00;100989.06;5073149;28;20044;-52
2022/12/20 08:51:10;;;;;;;7.72;2.83;;;;;;;9.47;100.00;100977.44;5072989;28;20033;-49
2022/12/20 08:53:39;;;;;;;5.55;2.33;;;;;;;9.47;100.00;100980.94;5072872;28;20048;-50
2022/12/20 08:56:12;;;;;;;8.77;2.70;;;;;;;9.50;100.00;100985.13;5073131;28;20048;-49
2022/12/20 08:58:43;;;;;;;7.20;2.45;;;;;;;9.53;100.00;100976.22;5072817;28;20046;-52
2022/12/20 09:01:13;;;;;;;7.63;2.65;;;;;;;9.53;100.00;100977.09;5072626;28;20443;-51
2022/12/20 09:03:42;;;;;;;6.00;2.30;;;;;;;9.58;100.00;100980.28;5071743;28;20040;-53
2022/12/20 09:06:12;;;;;;;4.72;2.20;;;;;;;9.47;100.00;100980.94;5069343;28;20132;-53
2022/12/20 09:08:41;;;;;;;6.93;2.58;;;;;;;9.40;100.00;100994.50;5071042;28;20048;-51
2022/12/20 09:11:11;;;;;;;6.28;2.33;;;;;;;9.37;100.00;100992.88;5072887;28;20071;-52
2022/12/20 09:13:42;;;;;;;6.45;3.25;;;;;;;9.28;100.00;100983.78;5068665;28;20044;-51
2022/12/20 09:16:14;;;;;;;6.18;2.90;;;;;;;9.29;100.00;100989.84;5070196;28;20047;-50
2022/12/20 09:18:42;;;;;;;7.30;2.85;;;;;;;9.27;100.00;100987.31;5072681;28;20048;-55
2022/12/20 09:21:12;;;;;;;7.95;2.80;;;;;;;9.22;100.00;100981.47;5070252;28;20082;-55
2022/12/20 09:23:40;;;;;;;9.23;2.80;;;;;;;9.20;100.00;100982.50;5069261;28;20048;-55
2022/12/20 09:26:12;;;;;;;6.78;2.83;;;;;;;9.16;100.00;100978.34;5072301;28;20434;-55
2022/12/20 09:28:42;;;;;;;6.50;2.92;;;;;;;9.16;100.00;100983.59;5072536;28;20119;-55
2022/12/20 09:31:12;;;;;;;6.30;2.80;;;;;;;9.12;100.00;100977.69;5072477;28;20048;-53
2022/12/20 09:33:41;;;;;;;6.82;3.03;;;;;;;9.18;100.00;100987.84;5070230;28;20056;-55
2022/12/20 09:36:11;;;;;;;7.22;2.72;;;;;;;9.20;100.00;100979.88;5068941;28;20044;-55
2022/12/20 09:38:39;;;;;;;7.70;2.90;;;;;;;9.11;100.00;100976.00;5070365;28;20063;-54
2022/12/20 09:41:25;;;;;;;8.40;2.80;;;;;;;9.12;100.00;100972.44;5070640;28;20590;-53
2022/12/20 09:43:55;;;;;;;6.13;2.80;;;;;;;9.17;100.00;100972.19;5068538;28;20053;-56
2022/12/20 09:46:25;;;;;;;6.97;2.95;;;;;;;9.15;100.00;100980.16;5071167;28;20399;-56
2022/12/20 09:48:54;;;;;;;7.57;2.72;;;;;;;9.11;100.00;100970.75;5072436;28;20511;-56
2022/12/20 09:51:38;;;;;;;6.97;3.03;;;;;;;9.14;100.00;100970.59;5071809;28;20863;-56
2022/12/20 09:54:18;;;;;;;7.18;2.58;;;;;;;9.14;100.00;100973.19;5069257;28;20044;-55
2022/12/20 09:56:56;;;;;;;5.50;2.83;;;;;;;9.17;100.00;100975.66;5074471;28;20041;-56
2022/12/20 09:59:27;;;;;;;7.18;2.63;;;;;;;9.17;100.00;100965.16;5076364;28;20106;-56
2022/12/20 10:01:55;;;;;;;7.38;2.83;;;;;;;9.18;100.00;100964.22;5070887;28;20067;-55
2022/12/20 10:04:28;;;;;;;7.88;2.60;;;;;;;9.17;100.00;100966.94;5073906;28;20127;-55
2022/12/20 10:07:12;;;;;;;6.40;2.70;;;;;;;9.18;100.00;100961.59;5075994;28;20143;-56
2022/12/20 10:09:57;;;;;;;5.13;2.60;;;;;;;9.18;100.00;100971.25;5076006;28;20135;-55
2022/12/20 10:12:39;;;;;;;6.65;2.90;;;;;;;9.18;100.00;100963.38;5075866;28;20036;-55
2022/12/20 10:15:19;;;;;;;6.68;2.95;;;;;;;9.21;100.00;100966.66;5076078;28;20059;-56
2022/12/20 10:18:02;;;;;;;8.27;3.00;;;;;;;9.18;100.00;100960.75;5075928;28;20048;-55
2022/12/20 10:20:53;;;;;;;17.48;5.63;;;;;;;9.18;100.00;100958.16;5075533;28;20055;-56
2022/12/20 10:23:28;;;;;;;5.40;2.90;;;;;;;9.16;100.00;100958.19;5075300;28;20048;-56
2022/12/20 10:26:00;;;;;;;5.47;2.75;;;;;;;9.17;100.00;100956.44;5075446;28;20047;-56
2022/12/20 10:28:31;;;;;;;10.98;3.30;;;;;;;9.21;100.00;100950.91;5071954;28;20052;-54
2022/12/20 10:31:02;;;;;;;7.82;2.85;;;;;;;9.20;100.00;100948.38;5070701;28;20063;-50
2022/12/20 10:33:31;;;;;;;6.80;2.58;;;;;;;9.21;100.00;100953.53;5075296;28;20047;-52
2022/12/20 10:36:25;;;;;;;6.13;2.63;;;;;;;9.22;100.00;100943.91;5075504;28;20044;-53
2022/12/20 10:38:56;;;;;;;7.88;2.75;;;;;;;9.21;100.00;100944.84;5075520;28;20048;-55
2022/12/20 10:41:26;;;;;;;9.07;2.80;;;;;;;9.19;100.00;100950.19;5075390;28;20048;-55
2022/12/20 10:44:00;;;;;;;7.53;3.28;;;;;;;9.24;100.00;100950.75;5073502;28;20064;-56
2022/12/20 10:46:39;;;;;;;;;;;;;;;9.23;100.00;100948.19;5075097;28;20507;-55
2022/12/20 10:49:39;;;;;;;6.03;3.30;;;;;;;9.21;100.00;100940.41;5075499;28;19920;-55
2022/12/20 10:52:13;;;;;;;7.35;3.15;;;;;;;9.24;100.00;100945.50;5029934;28;20061;-55
2022/12/20 10:54:43;;;;;;;6.78;2.97;;;;;;;9.23;100.00;100941.19;5065911;28;20135;-56
2022/12/20 10:57:19;;;;;;;7.63;3.30;;;;;;;9.27;100.00;100940.09;5075552;28;20048;-56
2022/12/20 10:59:51;;;;;;;6.90;3.60;;;;;;;9.33;100.00;100938.88;5051513;28;20044;-56
2022/12/20 11:02:28;;;;;;;6.95;3.40;;;;;;;9.33;100.00;100938.88;5050509;28;20134;-55
2022/12/20 11:05:23;;;;;;;8.32;3.30;;;;;;;9.33;100.00;100922.28;5070654;28;20056;-55
2022/12/20 11:07:55;;;;;;;7.18;3.42;;;;;;;9.27;100.00;100926.09;5071233;28;20055;-55
2022/12/20 11:10:45;;;;;;;7.45;3.58;;;;;;;9.30;100.00;100925.94;5073651;28;20056;-54
2022/12/20 11:13:24;;;;;;;6.43;3.20;;;;;;;9.30;100.00;100920.69;5071290;28;20075;-54
2022/12/20 11:16:00;;;;;;;8.38;3.58;;;;;;;9.30;100.00;100923.31;5073940;28;20051;-54
2022/12/20 11:18:44;;;;;;;6.88;3.50;;;;;;;9.28;100.00;100920.78;5073057;28;20075;-54
2022/12/20 11:21:22;;;;;;;7.90;3.47;;;;;;;9.26;100.00;100925.25;5073133;28;20044;-54
2022/12/20 11:24:02;;;;;;;7.20;3.33;;;;;;;9.29;100.00;100917.19;5073043;28;20492;-54
2022/12/20 11:26:42;;;;;;;6.80;3.58;;;;;;;9.29;100.00;100925.06;5072611;28;20615;-54
2022/12/20 11:29:25;;;;;;;7.68;3.60;;;;;;;9.28;100.00;100910.28;5072555;28;20564;-53
2022/12/20 11:32:03;;;;;;;8.07;3.53;;;;;;;9.34;100.00;100910.84;5069853;28;20278;-52
2022/12/20 11:34:44;;;;;;;6.90;3.35;;;;;;;9.30;100.00;100916.28;5070903;28;20044;-55
2022/12/20 11:37:19;;;;;;;8.88;3.40;;;;;;;9.32;100.00;100904.84;5073912;28;20052;-54
2022/12/20 11:40:04;;;;;;;8.55;4.13;;;;;;;9.32;100.00;100902.22;5074375;28;20499;-49
2022/12/20 11:42:47;;;;;;;7.95;3.45;;;;;;;9.36;100.00;100896.69;5074322;28;20090;-51
2022/12/20 11:45:23;;;;;;;9.52;3.70;;;;;;;9.37;100.00;100902.81;5074296;28;20081;-50
2022/12/20 11:48:20;;;;;;;10.68;3.78;;;;;;;9.36;100.00;100898.47;5074260;28;20037;-54
2022/12/20 11:51:09;;;;;;;9.55;3.30;;;;;;;9.39;100.00;100898.28;5061186;28;20052;-55
2022/12/20 11:53:49;;;;;;;6.93;3.40;;;;;;;9.39;100.00;100893.03;5074102;28;20391;-54